Time;durP1;ratioP1;P1;durP2;ratioP2;P2;SDS_P1;SDS_P2;PMS_P1;PMS_P2;Temp;Humidity;BMP_temperature;BMP_pressure;BME280_temperature;BME280_humidity;BME280_pressure;Samples;Min_cycle;Max_cycle;Signal;HPM_P1;HPM_P2
2021/11/03 00:00:36;;;;;;;50.34;25.05;;;;;;;;;;377953;140;866957;-54
2021/11/03 00:01:38;;;;;;;42.49;23.57;;;;;;;;;;377617;139;866096;-54
2021/11/03 00:02:41;;;;;;;43.31;22.99;;;;;;;;;;376132;139;859057;-54
2021/11/03 00:03:43;;;;;;;42.26;21.63;;;;;;;;;;375736;140;859273;-54
2021/11/03 00:04:45;;;;;;;42.75;20.33;;;;;;;;;;375143;142;857161;-54
2021/11/03 00:05:46;;;;;;;40.25;21.69;;;;;;;;;;374678;139;858494;-54
2021/11/03 00:06:48;;;;;;;42.10;22.34;;;;;;;;;;377198;139;865303;-54
2021/11/03 00:07:50;;;;;;;41.30;22.95;;;;;;;;;;374305;141;864891;-55
2021/11/03 00:08:51;;;;;;;44.54;20.74;;;;;;;;;;373725;139;857337;-54
2021/11/03 00:09:53;;;;;;;41.19;22.06;;;;;;;;;;375033;139;864806;-55
2021/11/03 00:10:54;;;;;;;42.15;22.66;;;;;;;;;;379683;140;858406;-56
2021/11/03 00:11:56;;;;;;;37.22;20.49;;;;;;;;;;376523;140;864772;-56
2021/11/03 00:12:58;;;;;;;40.32;21.34;;;;;;;;;;374857;140;859615;-56
2021/11/03 00:13:59;;;;;;;39.33;21.04;;;;;;;;;;376303;139;864813;-56
2021/11/03 00:15:01;;;;;;;40.76;22.02;;;;;;;;;;378340;139;865208;-57
2021/11/03 00:16:03;;;;;;;38.09;19.70;;;;;;;;;;375218;140;866544;-55
2021/11/03 00:17:06;;;;;;;41.13;22.15;;;;;;;;;;375066;139;865615;-55
2021/11/03 00:18:08;;;;;;;38.89;20.96;;;;;;;;;;375578;139;857215;-54
2021/11/03 00:19:10;;;;;;;44.15;22.11;;;;;;;;;;375239;143;857211;-55
2021/11/03 00:20:12;;;;;;;41.25;22.37;;;;;;;;;;374824;141;856362;-54
2021/11/03 00:21:13;;;;;;;39.75;22.82;;;;;;;;;;375336;139;864857;-56
2021/11/03 00:22:15;;;;;;;43.09;22.55;;;;;;;;;;371579;140;857104;-55
2021/11/03 00:23:17;;;;;;;42.91;22.07;;;;;;;;;;377110;140;864889;-55
2021/11/03 00:24:19;;;;;;;40.56;21.90;;;;;;;;;;375574;140;857251;-55
2021/11/03 00:25:20;;;;;;;39.78;22.94;;;;;;;;;;374800;140;865611;-55
2021/11/03 00:26:22;;;;;;;44.56;23.49;;;;;;;;;;373668;140;865761;-56
2021/11/03 00:27:24;;;;;;;37.94;20.27;;;;;;;;;;375667;139;864940;-55
2021/11/03 00:28:26;;;;;;;39.86;22.65;;;;;;;;;;375646;139;858889;-55
2021/11/03 00:29:27;;;;;;;42.21;22.01;;;;;;;;;;376267;141;865849;-55
2021/11/03 00:30:29;;;;;;;41.43;19.26;;;;;;;;;;374405;139;865660;-55
2021/11/03 00:31:31;;;;;;;37.56;19.91;;;;;;;;;;376448;139;857321;-54
2021/11/03 00:32:32;;;;;;;46.08;22.69;;;;;;;;;;377192;141;858706;-55
2021/11/03 00:33:34;;;;;;;43.75;22.64;;;;;;;;;;378112;140;865913;-55
2021/11/03 00:42:07;;;;;;;35.32;19.68;;;;;;;9.17;76.96;99092.58;367616;142;884888;-54
2021/11/03 00:43:09;;;;;;;28.62;15.43;;;;;;;9.07;77.12;99091.86;361040;147;857766;-54
2021/11/03 00:44:11;;;;;;;27.91;15.91;;;;;;;9.08;77.19;99087.56;362386;147;858902;-55
2021/11/03 00:45:13;;;;;;;28.11;15.25;;;;;;;9.09;77.08;99086.69;361077;147;865764;-55
2021/11/03 00:46:15;;;;;;;26.38;14.67;;;;;;;9.11;77.00;99095.27;366262;147;865498;-54
2021/11/03 00:47:16;;;;;;;28.05;15.13;;;;;;;9.16;77.04;99090.88;362474;147;857289;-55
2021/11/03 00:48:18;;;;;;;29.29;15.06;;;;;;;9.24;76.92;99093.32;360649;147;857242;-54
2021/11/03 00:49:20;;;;;;;27.47;15.65;;;;;;;9.24;76.92;99093.32;362589;147;865854;-54
2021/11/03 00:50:23;;;;;;;26.79;14.81;;;;;;;9.43;76.32;99091.30;360483;147;857286;-54
2021/11/03 00:51:25;;;;;;;29.28;14.67;;;;;;;9.53;76.11;99091.97;361622;147;865211;-54
2021/11/03 00:52:27;;;;;;;32.49;15.28;;;;;;;9.63;75.79;99090.96;361654;146;857767;-54
2021/11/03 00:53:28;;;;;;;25.16;15.03;;;;;;;9.70;75.37;99092.55;362843;147;865019;-54
2021/11/03 00:54:30;;;;;;;25.97;15.21;;;;;;;9.78;75.20;99093.27;360634;147;865915;-55
2021/11/03 00:55:32;;;;;;;27.16;14.97;;;;;;;9.88;75.03;99093.93;363642;146;857308;-55
2021/11/03 00:56:34;;;;;;;23.93;13.77;;;;;;;9.97;74.30;99095.50;361653;147;865134;-54
2021/11/03 00:57:36;;;;;;;30.11;15.64;;;;;;;10.07;74.35;99096.16;362135;147;857489;-54
2021/11/03 00:58:38;;;;;;;27.51;14.59;;;;;;;10.15;74.04;99090.84;360335;147;867777;-54
2021/11/03 00:59:40;;;;;;;28.26;14.30;;;;;;;10.25;73.72;99097.53;362348;146;865192;-54
2021/11/03 01:00:42;;;;;;;28.08;15.19;;;;;;;10.34;73.46;99093.92;356099;147;857249;-54
2021/11/03 01:01:44;;;;;;;31.31;15.33;;;;;;;10.43;72.98;99092.89;357508;148;857218;-54
2021/11/03 01:02:47;;;;;;;24.01;14.97;;;;;;;10.50;72.80;99089.30;358775;147;856392;-54
2021/11/03 01:03:49;;;;;;;23.24;13.57;;;;;;;10.61;72.45;99089.08;355639;150;857129;-55
2021/11/03 01:04:51;;;;;;;28.59;15.13;;;;;;;10.68;72.15;99084.63;356551;147;857414;-54
2021/11/03 01:05:53;;;;;;;27.50;14.74;;;;;;;10.70;71.77;99090.62;358680;147;857564;-55
2021/11/03 01:06:55;;;;;;;26.34;13.68;;;;;;;10.73;71.77;99091.39;355411;149;859042;-54
2021/11/03 01:07:57;;;;;;;26.54;14.37;;;;;;;10.78;71.81;99086.13;358346;150;860544;-55
2021/11/03 01:08:59;;;;;;;31.81;16.41;;;;;;;10.78;70.89;99092.13;356873;147;857323;-56
2021/11/03 01:10:01;;;;;;;27.51;14.45;;;;;;;10.81;71.03;99088.64;358225;147;867438;-55
2021/11/03 01:11:03;;;;;;;31.96;15.01;;;;;;;10.83;71.07;99088.59;354182;147;865604;-55
2021/11/03 01:12:06;;;;;;;29.25;14.31;;;;;;;10.83;71.14;99089.45;349942;150;859235;-55
2021/11/03 01:13:07;;;;;;;28.32;14.71;;;;;;;10.86;71.12;99086.80;350920;151;857749;-55
2021/11/03 01:14:09;;;;;;;27.63;14.98;;;;;;;10.88;70.88;99090.20;358297;149;857859;-54
2021/11/03 01:15:12;;;;;;;29.27;14.94;;;;;;;10.90;70.68;99088.43;356109;147;857280;-55
2021/11/03 01:16:14;;;;;;;26.69;14.61;;;;;;;10.91;70.61;99079.77;350826;150;866809;-55
2021/11/03 01:17:17;;;;;;;29.13;14.97;;;;;;;10.94;70.41;99078.83;358747;147;858069;-54
2021/11/03 01:18:19;;;;;;;28.78;15.65;;;;;;;10.94;70.52;99084.88;358040;147;857793;-54
2021/11/03 01:19:21;;;;;;;27.99;15.71;;;;;;;10.97;70.58;99083.94;357917;148;858069;-54
2021/11/03 01:20:23;;;;;;;26.53;15.67;;;;;;;;;;357800;147;865352;-54
2021/11/03 01:21:25;;;;;;;32.57;16.47;;;;;;;;;;359247;147;866252;-55
2021/11/03 01:22:27;;;;;;;33.17;16.81;;;;;;;;;;358343;150;858981;-55
2021/11/03 01:23:29;;;;;;;31.47;18.30;;;;;;;;;;359387;147;859176;-54
2021/11/03 01:24:31;;;;;;;34.77;19.61;;;;;;;;;;356955;147;865662;-54
2021/11/03 01:25:32;;;;;;;35.29;18.89;;;;;;;;;;347817;152;857534;-53
2021/11/03 01:26:34;;;;;;;34.79;18.69;;;;;;;;;;357812;147;865011;-54
2021/11/03 01:27:36;;;;;;;36.17;19.66;;;;;;;;;;358352;147;857236;-56
2021/11/03 01:28:38;;;;;;;40.27;19.86;;;;;;;;;;358705;149;864989;-54
2021/11/03 01:29:41;;;;;;;37.03;20.24;;;;;;;;;;358927;150;864913;-54
2021/11/03 01:30:45;;;;;;;39.41;20.53;;;;;;;;;;358547;147;857667;-55
2021/11/03 01:31:46;;;;;;;41.33;19.14;;;;;;;;;;357081;149;861018;-55
2021/11/03 01:32:49;;;;;;;41.67;20.95;;;;;;;;;;347578;150;864767;-54
2021/11/03 01:33:50;;;;;;;39.21;20.56;;;;;;;;;;357057;148;856413;-54
2021/11/03 01:34:52;;;;;;;38.47;20.67;;;;;;;;;;357026;147;857252;-54
2021/11/03 01:35:54;;;;;;;38.65;20.41;;;;;;;;;;358560;150;857295;-54
2021/11/03 01:36:56;;;;;;;39.28;21.37;;;;;;;;;;359545;147;865032;-55
2021/11/03 01:37:57;;;;;;;43.90;22.20;;;;;;;;;;356269;147;857669;-55
2021/11/03 01:38:59;;;;;;;43.60;21.96;;;;;;;;;;352377;150;859217;-55
2021/11/03 01:40:01;;;;;;;40.02;21.70;;;;;;;;;;358142;147;866706;-54
2021/11/03 01:41:02;;;;;;;40.79;21.52;;;;;;;;;;350280;150;865528;-54
2021/11/03 01:42:04;;;;;;;38.18;21.08;;;;;;;;;;347824;152;860962;-54
2021/11/03 01:43:07;;;;;;;40.37;20.93;;;;;;;;;;351883;151;857738;-54
2021/11/03 01:44:13;;;;;;;36.75;20.75;;;;;;;;;;353534;150;858302;-57
2021/11/03 01:45:15;;;;;;;39.21;21.13;;;;;;;;;;343054;153;857812;-56
2021/11/03 01:46:23;;;;;;;38.92;21.16;;;;;;;;;;343668;152;858239;-56
2021/11/03 01:47:42;;;;;;;38.62;20.59;;;;;;;;;;351361;150;866511;-54
2021/11/03 01:48:44;;;;;;;40.80;21.88;;;;;;;;;;351205;150;857171;-54
2021/11/03 01:49:46;;;;;;;44.77;21.11;;;;;;;;;;353177;151;859129;-53
2021/11/03 01:50:49;;;;;;;45.90;21.90;;;;;;;;;;352145;151;857982;-54
2021/11/03 01:51:53;;;;;;;42.23;20.47;;;;;;;;;;351835;150;860866;-54
2021/11/03 01:52:59;;;;;;;42.73;22.51;;;;;;;;;;351742;150;861951;-55
2021/11/03 01:54:00;;;;;;;40.93;21.74;;;;;;;;;;350888;152;859047;-54
2021/11/03 01:55:02;;;;;;;37.42;18.46;;;;;;;;;;349723;151;857304;-55
2021/11/03 01:56:05;;;;;;;43.60;22.02;;;;;;;;;;352446;150;865303;-56
2021/11/03 01:57:08;;;;;;;40.60;21.31;;;;;;;;;;352809;152;858058;-54
2021/11/03 01:58:11;;;;;;;42.35;22.72;;;;;;;;;;352509;150;858587;-54
2021/11/03 01:59:21;;;;;;;49.76;21.37;;;;;;;;;;351940;152;858114;-55
2021/11/03 02:00:24;;;;;;;42.89;20.98;;;;;;;;;;346361;154;857127;-54
2021/11/03 02:01:27;;;;;;;44.01;20.85;;;;;;;;;;345831;153;865056;-54
2021/11/03 02:02:29;;;;;;;45.37;21.86;;;;;;;;;;350423;150;857203;-55
2021/11/03 02:03:31;;;;;;;40.69;20.97;;;;;;;;;;354516;150;858133;-55
2021/11/03 02:04:32;;;;;;;44.33;22.00;;;;;;;;;;352413;152;864891;-54
2021/11/03 02:05:35;;;;;;;42.80;20.99;;;;;;;;;;352716;151;864125;-54
2021/11/03 02:06:37;;;;;;;44.65;23.40;;;;;;;;;;350903;150;867021;-55
2021/11/03 02:07:39;;;;;;;42.69;22.35;;;;;;;;;;352359;152;859787;-54
2021/11/03 02:08:41;;;;;;;44.25;21.50;;;;;;;;;;349984;152;859521;-54
2021/11/03 02:09:43;;;;;;;43.86;22.64;;;;;;;;;;351172;150;858607;-54
2021/11/03 02:10:45;;;;;;;42.81;21.67;;;;;;;;;;352016;151;857036;-54
2021/11/03 02:11:47;;;;;;;42.28;21.25;;;;;;;;;;350726;150;858435;-54
2021/11/03 02:12:48;;;;;;;44.28;21.68;;;;;;;;;;352296;151;866800;-54
2021/11/03 02:13:50;;;;;;;39.73;20.66;;;;;;;;;;351874;151;865985;-55
2021/11/03 02:14:52;;;;;;;44.61;22.04;;;;;;;;;;347649;152;864519;-54
2021/11/03 02:15:53;;;;;;;44.53;21.90;;;;;;;;;;350751;150;864951;-54
2021/11/03 02:16:55;;;;;;;39.45;20.24;;;;;;;;;;351728;150;864911;-54
2021/11/03 02:17:57;;;;;;;38.84;18.75;;;;;;;;;;350842;152;860429;-54
2021/11/03 02:18:58;;;;;;;39.08;19.88;;;;;;;;;;351087;152;859023;-55
2021/11/03 02:20:00;;;;;;;41.85;22.72;;;;;;;;;;353010;150;866435;-54
2021/11/03 02:21:02;;;;;;;40.56;20.81;;;;;;;;;;353293;150;865058;-55
2021/11/03 02:22:06;;;;;;;43.20;20.01;;;;;;;;;;350583;152;857748;-55
2021/11/03 02:23:26;;;;;;;40.06;21.23;;;;;;;;;;352374;150;857232;-54
2021/11/03 02:24:30;;;;;;;40.91;20.06;;;;;;;;;;350962;152;867009;-54
2021/11/03 02:25:33;;;;;;;44.03;21.87;;;;;;;;;;348787;152;857259;-54
2021/11/03 02:26:37;;;;;;;35.47;21.10;;;;;;;;;;351568;151;857310;-55
2021/11/03 02:27:39;;;;;;;39.64;20.10;;;;;;;;;;351337;150;857290;-55
2021/11/03 02:28:42;;;;;;;39.39;20.16;;;;;;;;;;351749;150;857387;-55
2021/11/03 02:29:43;;;;;;;39.53;20.95;;;;;;;;;;351856;152;857695;-54
2021/11/03 02:30:45;;;;;;;37.08;19.61;;;;;;;;;;350669;150;857289;-54
2021/11/03 02:31:49;;;;;;;39.27;19.79;;;;;;;;;;353230;150;856891;-54
2021/11/03 02:32:58;;;;;;;38.95;20.58;;;;;;;;;;352569;152;864689;-54
2021/11/03 02:34:01;;;;;;;39.79;19.59;;;;;;;;;;352938;150;864790;-55
2021/11/03 02:35:03;;;;;;;39.49;21.17;;;;;;;;;;352440;150;861489;-54
2021/11/03 02:36:05;;;;;;;40.76;20.55;;;;;;;;;;352975;152;858958;-54
2021/11/03 02:37:26;;;;;;;36.97;20.31;;;;;;;;;;350058;150;859197;-54
2021/11/03 02:38:30;;;;;;;26.60;15.28;;;;;;;;;;352128;151;857730;-54
2021/11/03 02:39:36;;;;;;;38.42;20.06;;;;;;;;;;353126;152;864939;-55
2021/11/03 02:40:40;;;;;;;40.57;21.32;;;;;;;;;;353889;151;858470;-54
2021/11/03 02:41:42;;;;;;;34.56;19.42;;;;;;;;;;349393;150;857439;-54
2021/11/03 02:42:45;;;;;;;33.28;19.35;;;;;;;;;;352588;147;865650;-54
2021/11/03 02:43:50;;;;;;;36.36;19.71;;;;;;;;;;358447;150;865952;-56
2021/11/03 02:44:51;;;;;;;36.21;20.04;;;;;;;;;;355440;148;865289;-54
2021/11/03 04:04:09;;;;;;;30.17;13.12;;;;;;;7.30;91.45;99097.33;369722;142;877032;-60
2021/11/03 04:05:11;;;;;;;26.04;13.16;;;;;;;7.21;91.42;99101.68;362491;147;857979;-62
2021/11/03 04:06:13;;;;;;;25.61;12.41;;;;;;;7.21;91.42;99101.68;364569;144;857858;-58
2021/11/03 04:07:15;;;;;;;23.26;11.77;;;;;;;7.25;91.27;99104.23;362703;144;858678;-58
2021/11/03 04:08:16;;;;;;;17.30;9.71;;;;;;;7.34;91.25;99105.87;363205;146;865426;-58
2021/11/03 04:09:18;;;;;;;24.49;13.29;;;;;;;7.44;91.16;99110.09;362507;147;865602;-59
2021/11/03 04:10:20;;;;;;;21.26;11.06;;;;;;;7.59;90.97;99103.94;363319;145;861363;-58
2021/11/03 04:11:22;;;;;;;21.51;11.31;;;;;;;;;;363489;145;858280;-61
2021/11/03 04:12:23;;;;;;;22.69;11.60;;;;;;;;;;361507;145;857396;-58
2021/11/03 04:13:26;;;;;;;20.21;11.50;;;;;;;;;;362722;146;859878;-59
2021/11/03 04:14:27;;;;;;;22.24;11.91;;;;;;;;;;361852;144;857425;-59
2021/11/03 04:15:29;;;;;;;26.49;13.51;;;;;;;;;;362308;144;857382;-58
2021/11/03 04:16:32;;;;;;;22.62;12.33;;;;;;;;;;362307;146;857533;-57
2021/11/03 04:17:33;;;;;;;24.73;14.25;;;;;;;;;;362235;144;857942;-57
2021/11/03 04:18:35;;;;;;;25.78;15.09;;;;;;;;;;362356;144;867208;-58
2021/11/03 04:19:37;;;;;;;29.43;16.19;;;;;;;;;;364825;144;860096;-56
2021/11/03 04:20:38;;;;;;;25.77;14.24;;;;;;;;;;353527;147;868547;-58
2021/11/03 04:21:40;;;;;;;33.43;17.41;;;;;;;;;;351371;150;864432;-58
2021/11/03 04:22:43;;;;;;;28.22;16.41;;;;;;;;;;353975;147;856335;-57
2021/11/03 04:23:45;;;;;;;31.37;16.39;;;;;;;;;;351224;148;858035;-59
2021/11/03 04:24:47;;;;;;;34.49;17.09;;;;;;;;;;352198;147;859786;-59
2021/11/03 04:25:48;;;;;;;34.15;17.96;;;;;;;;;;351340;150;860094;-58
2021/11/03 04:26:50;;;;;;;27.85;15.54;;;;;;;;;;352058;150;857318;-58
2021/11/03 04:27:51;;;;;;;32.99;17.57;;;;;;;;;;351169;147;864868;-58
2021/11/03 04:28:53;;;;;;;33.48;16.59;;;;;;;;;;352151;150;866692;-59
2021/11/03 04:29:54;;;;;;;29.46;16.27;;;;;;;;;;352140;150;861744;-59
2021/11/03 04:30:56;;;;;;;30.26;16.84;;;;;;;;;;352955;147;857034;-60
2021/11/03 04:31:58;;;;;;;30.64;16.85;;;;;;;;;;352410;147;866702;-59
2021/11/03 04:32:59;;;;;;;29.56;14.61;;;;;;;;;;353593;147;862764;-59
2021/11/03 04:34:01;;;;;;;29.15;15.06;;;;;;;;;;359589;147;865540;-61
2021/11/03 04:35:04;;;;;;;30.20;16.76;;;;;;;;;;345638;150;865019;-61
2021/11/03 04:36:06;;;;;;;34.09;18.82;;;;;;;;;;351029;150;865005;-59
2021/11/03 04:37:08;;;;;;;27.93;14.65;;;;;;;;;;351201;150;857327;-60
2021/11/03 04:38:09;;;;;;;26.06;13.42;;;;;;;;;;352148;147;858638;-60
2021/11/03 04:39:11;;;;;;;27.41;15.29;;;;;;;;;;351246;147;865428;-57
2021/11/03 04:40:14;;;;;;;31.11;17.08;;;;;;;;;;351330;150;857095;-59
2021/11/03 04:41:16;;;;;;;31.99;17.41;;;;;;;;;;352650;150;857962;-58
2021/11/03 04:42:18;;;;;;;32.85;17.62;;;;;;;;;;351575;147;859797;-62
2021/11/03 04:43:19;;;;;;;28.33;15.91;;;;;;;;;;343272;153;857348;-61
2021/11/03 04:44:21;;;;;;;29.43;15.16;;;;;;;;;;352597;147;857753;-62
2021/11/03 04:45:22;;;;;;;30.75;15.00;;;;;;;;;;353024;150;857277;-63
2021/11/03 04:46:24;;;;;;;31.87;17.90;;;;;;;;;;351100;150;865632;-62
2021/11/03 04:47:26;;;;;;;31.51;18.44;;;;;;;;;;351336;152;858588;-63
2021/11/03 04:48:28;;;;;;;32.42;14.70;;;;;;;;;;351183;147;857488;-61
2021/11/03 04:49:29;;;;;;;28.89;15.18;;;;;;;;;;351455;147;857442;-61
2021/11/03 04:50:31;;;;;;;32.94;16.65;;;;;;;;;;352181;150;861295;-60
2021/11/03 04:51:33;;;;;;;26.87;15.29;;;;;;;;;;351615;150;865924;-61
2021/11/03 04:52:35;;;;;;;34.44;17.08;;;;;;;;;;351816;147;858380;-61
2021/11/03 04:53:36;;;;;;;29.32;15.49;;;;;;;;;;352332;148;865507;-59
2021/11/03 04:54:38;;;;;;;32.06;15.81;;;;;;;;;;351244;147;864675;-57
2021/11/03 04:55:40;;;;;;;35.73;17.96;;;;;;;;;;354720;147;857368;-59
2021/11/03 04:56:42;;;;;;;29.37;14.73;;;;;;;;;;351187;147;864866;-59
2021/11/03 04:57:44;;;;;;;27.36;14.06;;;;;;;;;;353325;147;857618;-58
2021/11/03 04:58:47;;;;;;;34.79;18.98;;;;;;;;;;351482;148;858002;-59
2021/11/03 04:59:49;;;;;;;31.12;17.21;;;;;;;;;;352692;147;865458;-59
2021/11/03 05:00:50;;;;;;;36.69;18.11;;;;;;;;;;351403;150;857522;-59
2021/11/03 05:01:52;;;;;;;30.75;16.37;;;;;;;;;;352926;147;863839;-59
2021/11/03 05:02:54;;;;;;;32.32;16.19;;;;;;;;;;351654;147;859794;-59
2021/11/03 05:03:55;;;;;;;31.80;14.82;;;;;;;;;;350114;149;865914;-59
2021/11/03 05:04:57;;;;;;;31.33;16.87;;;;;;;;;;348549;149;865014;-60
2021/11/03 05:06:00;;;;;;;33.06;17.94;;;;;;;;;;348969;149;859853;-59
2021/11/03 05:07:02;;;;;;;31.84;17.13;;;;;;;;;;349218;148;859778;-58
2021/11/03 05:08:04;;;;;;;30.95;16.53;;;;;;;;;;348493;152;859183;-59
2021/11/03 05:09:06;;;;;;;29.21;17.45;;;;;;;;;;349328;152;866762;-60
2021/11/03 05:10:08;;;;;;;31.27;17.63;;;;;;;;;;349551;150;857518;-60
2021/11/03 05:11:09;;;;;;;28.36;14.57;;;;;;;;;;349761;152;858336;-61
2021/11/03 05:12:11;;;;;;;31.44;16.94;;;;;;;;;;347495;153;858040;-61
2021/11/03 05:13:13;;;;;;;30.65;15.95;;;;;;;;;;342501;153;865430;-60
2021/11/03 05:14:14;;;;;;;30.70;16.53;;;;;;;;;;344072;151;857238;-60
2021/11/03 05:15:16;;;;;;;30.44;14.78;;;;;;;;;;348263;152;859501;-59
2021/11/03 05:16:19;;;;;;;24.75;12.65;;;;;;;;;;350549;152;865044;-59
2021/11/03 05:17:20;;;;;;;28.98;15.31;;;;;;;;;;347256;148;857216;-59
2021/11/03 05:18:22;;;;;;;33.00;17.36;;;;;;;;;;349028;152;857475;-59
2021/11/03 05:19:25;;;;;;;32.27;14.91;;;;;;;;;;348337;152;857743;-59
2021/11/03 05:20:26;;;;;;;28.88;16.17;;;;;;;;;;347849;152;866728;-58
2021/11/03 05:21:28;;;;;;;37.21;18.72;;;;;;;;;;347589;151;865042;-59
2021/11/03 05:22:30;;;;;;;31.64;16.83;;;;;;;;;;347615;153;865080;-58
2021/11/03 05:23:31;;;;;;;35.34;16.99;;;;;;;;;;347655;148;856866;-62
2021/11/03 05:24:33;;;;;;;32.68;17.28;;;;;;;;;;347041;151;858721;-64
2021/11/03 05:25:34;;;;;;;27.96;14.87;;;;;;;;;;348075;151;865073;-61
2021/11/03 05:26:36;;;;;;;25.53;14.11;;;;;;;;;;348913;152;857807;-58
2021/11/03 05:27:38;;;;;;;30.27;15.64;;;;;;;;;;347530;148;857318;-61
2021/11/03 05:28:41;;;;;;;30.94;16.71;;;;;;;;;;349334;152;858388;-61
2021/11/03 05:29:43;;;;;;;32.33;16.52;;;;;;;;;;350216;148;858610;-59
2021/11/03 05:30:44;;;;;;;35.41;18.25;;;;;;;;;;349452;149;857313;-59
2021/11/03 05:31:46;;;;;;;27.09;15.73;;;;;;;;;;349418;151;857971;-61
2021/11/03 05:32:48;;;;;;;30.79;14.83;;;;;;;;;;347610;152;863977;-60
2021/11/03 05:33:50;;;;;;;29.62;16.80;;;;;;;;;;350179;152;858971;-58
2021/11/03 05:34:51;;;;;;;29.01;15.02;;;;;;;;;;348177;148;859406;-58
2021/11/03 05:35:53;;;;;;;29.88;15.39;;;;;;;;;;343373;153;859827;-61
2021/11/03 05:36:55;;;;;;;31.32;15.15;;;;;;;;;;343119;152;857076;-57
2021/11/03 05:41:53;;;;;;;25.06;13.37;;;;;;;9.65;81.23;99158.98;380451;138;883503;-58
2021/11/03 05:42:55;;;;;;;17.18;10.14;;;;;;;9.54;81.08;99161.73;372615;141;857191;-57
2021/11/03 05:43:58;;;;;;;18.98;9.64;;;;;;;9.55;81.13;99160.02;378129;139;857318;-59
2021/11/03 05:45:00;;;;;;;16.59;9.44;;;;;;;9.59;81.01;99161.67;375348;139;857314;-59
2021/11/03 05:46:02;;;;;;;20.56;9.27;;;;;;;9.61;80.87;99168.51;373463;139;857597;-58
2021/11/03 05:47:04;;;;;;;15.88;9.45;;;;;;;9.65;80.80;99174.50;380302;139;857196;-59
2021/11/03 05:48:06;;;;;;;13.95;8.23;;;;;;;9.71;80.73;99173.52;374425;141;857871;-59
2021/11/03 05:49:11;;;;;;;17.29;8.71;;;;;;;9.81;80.59;99174.23;374790;138;857292;-60
2021/11/03 05:50:19;;;;;;;12.40;7.29;;;;;;;9.91;80.23;99179.20;373175;141;865490;-59
2021/11/03 05:51:21;;;;;;;14.93;8.74;;;;;;;10.03;79.92;99177.27;373431;141;857638;-59
2021/11/03 05:52:24;;;;;;;19.10;9.01;;;;;;;10.14;79.66;99179.67;374727;139;857116;-60
2021/11/03 05:53:25;;;;;;;18.17;8.47;;;;;;;10.24;79.43;99173.45;375916;139;866786;-56
2021/11/03 05:54:27;;;;;;;15.48;7.03;;;;;;;10.35;78.95;99179.27;375785;138;857235;-59
2021/11/03 05:55:29;;;;;;;12.39;7.45;;;;;;;10.44;78.30;99183.45;373554;139;865013;-59
2021/11/03 05:56:32;;;;;;;12.53;7.31;;;;;;;10.51;78.08;99190.22;364968;144;859254;-58
2021/11/03 05:57:36;;;;;;;13.41;7.94;;;;;;;10.59;77.58;99186.62;374574;138;859434;-58
2021/11/03 05:58:38;;;;;;;13.29;8.45;;;;;;;10.69;77.49;99192.48;374904;139;859141;-57
2021/11/03 05:59:39;;;;;;;12.63;8.27;;;;;;;10.75;76.67;99194.94;373930;138;859522;-57
2021/11/03 06:00:41;;;;;;;15.04;8.28;;;;;;;10.81;76.92;99195.64;376148;139;857795;-58
2021/11/03 06:01:43;;;;;;;11.64;7.24;;;;;;;10.87;76.78;99192.09;375701;141;864914;-58
2021/11/03 06:02:45;;;;;;;13.49;7.65;;;;;;;;;;374306;139;860535;-58
2021/11/03 06:03:47;;;;;;;11.21;6.61;;;;;;;;;;377277;139;859844;-58
2021/11/03 06:04:49;;;;;;;13.15;8.16;;;;;;;;;;374395;141;866118;-58
2021/11/03 06:05:51;;;;;;;13.57;7.67;;;;;;;;;;373351;141;857215;-58
2021/11/03 06:06:52;;;;;;;14.12;8.89;;;;;;;;;;375424;141;862408;-58
2021/11/03 06:07:55;;;;;;;14.03;8.61;;;;;;;;;;374912;139;864911;-59
2021/11/03 06:08:56;;;;;;;11.69;7.03;;;;;;;;;;374107;141;856177;-57
2021/11/03 06:09:59;;;;;;;15.19;8.99;;;;;;;;;;374294;139;863932;-58
2021/11/03 06:11:02;;;;;;;20.25;10.00;;;;;;;;;;377295;138;856484;-57
2021/11/03 06:12:05;;;;;;;18.13;9.80;;;;;;;;;;376513;139;858749;-57
2021/11/03 06:13:07;;;;;;;13.20;8.99;;;;;;;;;;378917;138;863743;-58
2021/11/03 06:14:09;;;;;;;14.13;9.42;;;;;;;;;;373367;139;857167;-60
2021/11/03 06:15:10;;;;;;;14.35;9.05;;;;;;;;;;373569;139;857164;-58
2021/11/03 06:16:14;;;;;;;12.23;8.13;;;;;;;;;;376410;139;857082;-60
2021/11/03 06:17:16;;;;;;;14.73;9.34;;;;;;;;;;374688;139;858598;-58
2021/11/03 06:18:17;;;;;;;12.89;8.07;;;;;;;;;;376017;139;864951;-58
2021/11/03 06:19:19;;;;;;;15.63;8.55;;;;;;;;;;376078;139;865458;-58
2021/11/03 06:20:23;;;;;;;11.97;7.57;;;;;;;;;;373718;139;858135;-60
2021/11/03 06:21:24;;;;;;;15.95;9.11;;;;;;;;;;375279;141;857550;-59
2021/11/03 06:22:27;;;;;;;14.41;8.68;;;;;;;;;;373608;141;857384;-60
2021/11/03 06:23:29;;;;;;;13.75;8.89;;;;;;;;;;373878;138;857684;-58
2021/11/03 06:24:33;;;;;;;13.79;7.85;;;;;;;;;;374733;139;857338;-58
2021/11/03 07:05:47;;;;;;;10.92;6.15;;;;;;;8.59;86.42;99255.11;378155;139;881578;-61
2021/11/03 07:06:49;;;;;;;10.31;6.62;;;;;;;8.47;86.61;99256.05;368823;144;857849;-61
2021/11/03 07:07:51;;;;;;;9.82;5.41;;;;;;;8.46;87.18;99251.76;370474;144;856233;-61
2021/11/03 07:08:54;;;;;;;8.45;5.33;;;;;;;8.47;87.26;99262.08;370151;143;856146;-59
2021/11/03 07:09:56;;;;;;;8.86;5.19;;;;;;;8.52;87.24;99256.92;369794;143;856160;-59
2021/11/03 07:10:58;;;;;;;8.95;4.93;;;;;;;8.61;87.04;99259.40;371760;142;856621;-59
2021/11/03 07:12:00;;;;;;;8.17;5.60;;;;;;;8.75;87.06;99256.64;371167;143;856479;-60
2021/11/03 07:13:02;;;;;;;7.11;4.41;;;;;;;8.89;86.77;99260.78;365804;144;856587;-60
2021/11/03 07:14:04;;;;;;;8.51;4.67;;;;;;;9.05;86.46;99264.91;371700;143;864449;-60
2021/11/03 07:15:06;;;;;;;5.52;3.65;;;;;;;9.21;86.03;99273.30;364613;147;856207;-60
2021/11/03 07:16:08;;;;;;;7.87;4.62;;;;;;;9.37;85.65;99262.75;367616;142;863726;-60
2021/11/03 07:17:11;;;;;;;7.75;4.29;;;;;;;9.53;85.16;99258.23;366669;144;856158;-59
2021/11/03 07:18:13;;;;;;;5.93;4.26;;;;;;;9.71;84.68;99262.28;365050;147;856262;-60
2021/11/03 07:19:15;;;;;;;8.05;4.52;;;;;;;9.90;83.98;99261.98;372336;142;858557;-60
2021/11/03 07:20:17;;;;;;;6.75;4.10;;;;;;;;;;368153;143;856218;-61
2021/11/03 07:21:19;;;;;;;8.12;5.01;;;;;;;;;;369122;144;856340;-61
2021/11/03 07:22:21;;;;;;;7.27;4.34;;;;;;;;;;367463;143;856532;-61
2021/11/03 07:23:23;;;;;;;6.21;4.21;;;;;;;;;;363735;145;857447;-61
2021/11/03 07:24:24;;;;;;;6.99;5.09;;;;;;;;;;371487;143;856174;-61
2021/11/03 07:25:26;;;;;;;7.55;4.77;;;;;;;;;;362712;146;856285;-63
2021/11/03 07:26:28;;;;;;;7.93;4.70;;;;;;;;;;371791;143;856236;-63
2021/11/03 07:27:29;;;;;;;8.57;5.34;;;;;;;;;;369756;143;863842;-63
2021/11/03 07:28:32;;;;;;;8.94;5.33;;;;;;;;;;372872;142;864261;-62
2021/11/03 07:29:34;;;;;;;10.28;6.70;;;;;;;;;;371422;143;856473;-60
2021/11/03 07:30:36;;;;;;;8.53;6.29;;;;;;;;;;372323;142;864555;-63
2021/11/03 07:31:38;;;;;;;9.70;6.18;;;;;;;;;;372453;143;856575;-61
2021/11/03 07:32:39;;;;;;;9.46;6.31;;;;;;;;;;372387;142;856561;-61
2021/11/03 07:33:41;;;;;;;9.64;6.00;;;;;;;;;;372115;142;863970;-61
2021/11/03 07:34:42;;;;;;;8.26;5.64;;;;;;;;;;371274;143;856246;-66
2021/11/03 07:35:44;;;;;;;9.61;6.29;;;;;;;;;;371730;142;863890;-61
2021/11/03 07:36:46;;;;;;;11.76;6.82;;;;;;;;;;371963;143;857486;-60
2021/11/03 07:37:48;;;;;;;9.79;6.30;;;;;;;;;;371281;142;856090;-59
2021/11/03 07:38:50;;;;;;;10.71;6.47;;;;;;;;;;372602;144;856241;-61
2021/11/03 07:39:52;;;;;;;9.89;6.15;;;;;;;;;;373262;144;864145;-59
2021/11/03 07:40:54;;;;;;;9.19;6.68;;;;;;;;;;371336;142;856400;-61
2021/11/03 07:41:56;;;;;;;8.21;5.05;;;;;;;;;;370337;142;863835;-59
2021/11/03 07:42:59;;;;;;;11.17;5.96;;;;;;;;;;369057;144;856592;-59
2021/11/03 07:44:00;;;;;;;10.77;6.99;;;;;;;;;;370103;142;864037;-58
2021/11/03 07:45:03;;;;;;;8.93;5.42;;;;;;;;;;369174;142;863861;-61
2021/11/03 07:46:04;;;;;;;11.45;6.96;;;;;;;;;;371135;143;856683;-60
2021/11/03 07:47:06;;;;;;;9.41;5.69;;;;;;;;;;373167;142;856056;-61
2021/11/03 07:48:08;;;;;;;12.26;7.41;;;;;;;;;;372090;142;863812;-61